Time;durP1;ratioP1;P1;durP2;ratioP2;P2;SDS_P1;SDS_P2;PMS_P1;PMS_P2;Temp;Humidity;BMP_temperature;BMP_pressure;BME280_temperature;BME280_humidity;BME280_pressure;Samples;Min_cycle;Max_cycle;Signal;HPM_P1;HPM_P2
2022/10/04 00:01:09;;;;;;;12.57;2.38;;;;;;;8.78;100.00;154733.84;4931768;29;20028;-80
2022/10/04 00:03:43;;;;;;;13.23;2.50;;;;;;;8.68;100.00;154708.22;4908917;29;20126;-78
2022/10/04 00:06:22;;;;;;;12.73;2.55;;;;;;;8.66;100.00;154703.09;4894237;29;20510;-78
2022/10/04 00:09:04;;;;;;;8.15;2.13;;;;;;;8.64;100.00;154699.22;4900734;29;20352;-76
2022/10/04 00:11:34;;;;;;;11.63;2.20;;;;;;;8.61;100.00;154690.25;4901248;29;20503;-78
2022/10/04 00:14:05;;;;;;;14.38;2.70;;;;;;;8.55;100.00;154676.16;4932251;29;20036;-78
2022/10/04 00:16:39;;;;;;;11.05;2.58;;;;;;;8.54;100.00;154674.91;4917021;29;20072;-77
2022/10/04 00:19:14;;;;;;;12.98;2.35;;;;;;;8.55;100.00;154676.16;4896972;29;20049;-77
2022/10/04 00:21:55;;;;;;;7.10;2.17;;;;;;;8.54;100.00;154673.63;4916301;29;20047;-77
2022/10/04 00:24:25;;;;;;;10.32;2.65;;;;;;;8.54;100.00;154674.91;4916590;29;20786;-77
2022/10/04 00:26:50;;;;;;;9.25;2.17;;;;;;;8.55;100.00;154677.47;4916861;29;20086;-77
2022/10/04 00:29:25;;;;;;;12.25;2.17;;;;;;;8.56;100.00;154680.03;4915695;29;20040;-77
2022/10/04 00:32:09;;;;;;;9.20;2.45;;;;;;;8.57;100.00;154681.34;4917951;29;20043;-77
2022/10/04 00:34:35;;;;;;;9.75;2.38;;;;;;;8.54;100.00;154674.91;4902031;29;20134;-78
2022/10/04 00:37:11;;;;;;;7.93;2.15;;;;;;;8.52;100.00;154668.50;4922958;29;20135;-76
2022/10/04 00:39:41;;;;;;;10.35;2.38;;;;;;;8.49;100.00;154662.06;4919788;29;20438;-78
2022/10/04 00:42:19;;;;;;;10.73;2.40;;;;;;;8.48;100.00;154658.28;4918358;29;20055;-77
2022/10/04 00:44:58;;;;;;;14.00;2.28;;;;;;;8.45;100.00;154650.56;4916951;29;20035;-76
2022/10/04 00:47:45;;;;;;;8.60;2.33;;;;;;;8.43;100.00;154646.72;4915491;29;20044;-79
2022/10/04 00:50:29;;;;;;;9.38;1.98;;;;;;;8.35;100.00;154626.19;4929703;29;20044;-76
2022/10/04 00:52:58;;;;;;;8.93;2.20;;;;;;;8.31;100.00;154615.94;4926367;29;20056;-78
2022/10/04 00:55:31;;;;;;;5.07;1.73;;;;;;;8.26;100.00;154603.13;4930322;29;20082;-76
2022/10/04 00:57:59;;;;;;;7.95;2.20;;;;;;;8.22;100.00;154592.88;4901422;29;20074;-78
2022/10/04 01:00:28;;;;;;;5.90;2.15;;;;;;;8.26;100.00;154603.13;4931738;29;20536;-77
2022/10/04 01:02:57;;;;;;;10.27;2.33;;;;;;;8.25;100.00;154601.84;4916667;29;20042;-77
2022/10/04 01:05:38;;;;;;;13.82;2.92;;;;;;;8.27;100.00;154605.66;4917768;29;20048;-77
2022/10/04 01:08:08;;;;;;;11.50;2.17;;;;;;;8.25;100.00;154600.53;4900811;29;20042;-79
2022/10/04 01:10:41;;;;;;;7.30;2.10;;;;;;;8.30;100.00;154614.63;4918102;29;20036;-77
2022/10/04 01:13:15;;;;;;;11.48;2.20;;;;;;;8.29;100.00;154610.81;4915965;29;20036;-79
2022/10/04 01:15:49;;;;;;;6.35;1.60;;;;;;;8.30;100.00;154613.34;4928432;29;20042;-80
2022/10/04 01:18:27;;;;;;;10.15;2.15;;;;;;;8.30;100.00;154613.34;4898434;29;20082;-77
2022/10/04 01:20:56;;;;;;;8.82;2.22;;;;;;;8.30;100.00;154614.63;4917843;29;20649;-77
2022/10/04 01:23:40;;;;;;;7.65;2.15;;;;;;;8.33;100.00;154622.34;4917165;29;20059;-78
2022/10/04 01:26:28;;;;;;;6.20;2.35;;;;;;;8.39;100.00;154637.69;4902342;29;20039;-78
2022/10/04 01:29:17;;;;;;;14.20;3.10;;;;;;;8.38;100.00;154635.16;4918831;29;20122;-78
2022/10/04 01:31:45;;;;;;;10.50;3.05;;;;;;;8.39;100.00;154637.69;4915691;29;20050;-77
2022/10/04 01:34:21;;;;;;;7.20;2.65;;;;;;;8.33;100.00;154622.34;4905286;29;20039;-77
2022/10/04 01:36:48;;;;;;;10.32;2.72;;;;;;;8.37;100.00;154631.31;4924738;29;20046;-76
2022/10/04 01:39:15;;;;;;;10.52;2.50;;;;;;;8.35;100.00;154626.19;4908322;29;20043;-78
2022/10/04 01:41:45;;;;;;;9.52;2.70;;;;;;;8.32;100.00;154618.47;4920947;29;20391;-79
2022/10/04 01:44:19;;;;;;;8.60;2.33;;;;;;;8.28;100.00;154609.50;4921944;29;20367;-79
2022/10/04 01:46:46;;;;;;;8.23;2.22;;;;;;;8.27;100.00;154605.66;4907527;29;20068;-78
2022/10/04 01:49:16;;;;;;;8.23;2.45;;;;;;;8.25;100.00;154600.53;4902935;29;20141;-79
2022/10/04 01:51:59;;;;;;;10.13;2.42;;;;;;;8.12;100.00;154568.56;4903905;29;20038;-77
2022/10/04 01:54:42;;;;;;;7.03;2.30;;;;;;;8.14;100.00;154574.94;4919959;29;20067;-78
2022/10/04 01:57:26;;;;;;;;;;;;;;;8.09;100.00;154562.13;4903447;29;20040;-80
2022/10/04 02:00:00;;;;;;;6.82;2.22;;;;;;;8.00;100.00;154539.06;4917195;29;19923;-78
2022/10/04 02:02:34;;;;;;;10.05;2.95;;;;;;;8.01;100.00;154540.38;4917823;29;20035;-77
2022/10/04 02:05:04;;;;;;;13.00;2.80;;;;;;;8.01;100.00;154541.63;4902420;29;20131;-77
2022/10/04 02:07:32;;;;;;;8.60;2.88;;;;;;;7.99;100.00;154537.78;4937691;29;20047;-78
2022/10/04 02:10:01;;;;;;;10.27;2.72;;;;;;;7.99;100.00;154536.53;4922509;29;20043;-75
2022/10/04 02:12:30;;;;;;;12.30;3.10;;;;;;;7.98;100.00;154533.94;4922035;29;20071;-78
2022/10/04 02:14:58;;;;;;;15.85;3.15;;;;;;;8.01;100.00;154541.63;4920394;29;20042;-78
2022/10/04 02:17:28;;;;;;;12.77;3.22;;;;;;;8.10;100.00;154563.38;4920098;29;20040;-80
2022/10/04 02:19:56;;;;;;;13.05;2.65;;;;;;;8.11;100.00;154567.22;4919892;29;20461;-78
2022/10/04 02:22:24;;;;;;;10.90;2.50;;;;;;;8.12;100.00;154568.56;4934879;29;20502;-79
2022/10/04 02:24:53;;;;;;;7.97;2.40;;;;;;;8.05;100.00;154550.59;4921593;29;20382;-79
2022/10/04 02:27:24;;;;;;;12.32;3.10;;;;;;;8.09;100.00;154562.13;4903993;29;20094;-79
2022/10/04 02:29:50;;;;;;;7.93;2.17;;;;;;;8.08;100.00;154558.25;4921234;29;20051;-79
2022/10/04 02:35:02;;;;;;;11.40;2.75;;;;;;;8.12;100.00;154569.81;4920903;29;20028;-78
2022/10/04 02:37:29;;;;;;;10.48;2.75;;;;;;;8.18;100.00;154583.91;4919531;29;20036;-80
2022/10/04 02:40:17;;;;;;;9.07;2.65;;;;;;;8.18;100.00;154585.19;4937069;29;20573;-78
2022/10/04 02:43:04;;;;;;;10.90;3.00;;;;;;;8.23;100.00;154596.72;4901815;29;20418;-79
2022/10/04 02:45:46;;;;;;;12.15;2.40;;;;;;;8.25;100.00;154600.53;4919074;29;20036;-77
2022/10/04 02:48:25;;;;;;;10.43;2.85;;;;;;;8.28;100.00;154609.50;4913929;29;20520;-78
2022/10/04 02:50:53;;;;;;;13.43;3.35;;;;;;;8.27;100.00;154605.66;4904465;29;20581;-78
2022/10/04 02:53:44;;;;;;;8.10;2.78;;;;;;;8.26;100.00;154604.38;4917441;29;20043;-79
2022/10/04 02:56:11;;;;;;;14.75;3.28;;;;;;;8.24;100.00;154598.00;4921891;29;20040;-80
2022/10/04 02:58:38;;;;;;;9.05;3.05;;;;;;;8.25;100.00;154601.84;4926861;29;20427;-79
2022/10/04 03:01:03;;;;;;;6.82;2.70;;;;;;;8.22;100.00;154594.16;4949685;29;20062;-80
2022/10/04 03:03:33;;;;;;;11.55;4.05;;;;;;;8.18;100.00;154583.91;4914857;29;20778;-79
2022/10/04 03:06:06;;;;;;;15.95;3.75;;;;;;;8.16;100.00;154580.06;4936016;29;20071;-79
2022/10/04 03:08:49;;;;;;;9.48;3.05;;;;;;;8.15;100.00;154576.22;4918666;29;20695;-78
2022/10/04 03:11:16;;;;;;;13.05;3.28;;;;;;;8.16;100.00;154580.06;4933495;29;20043;-76
2022/10/04 03:13:47;;;;;;;10.05;2.85;;;;;;;8.15;100.00;154577.47;4904708;29;20067;-79
2022/10/04 03:16:14;;;;;;;10.65;3.03;;;;;;;8.16;100.00;154578.78;4921199;29;20043;-78
2022/10/04 03:18:41;;;;;;;9.75;2.88;;;;;;;8.12;100.00;154568.56;4901317;29;20027;-78
2022/10/04 03:21:11;;;;;;;10.00;3.85;;;;;;;8.15;100.00;154576.22;4920354;29;20039;-76
2022/10/04 03:23:38;;;;;;;13.40;3.13;;;;;;;8.12;100.00;154569.81;4901193;29;20080;-78
2022/10/04 03:26:44;;;;;;;8.50;3.05;;;;;;;8.13;100.00;154572.34;4919584;29;20027;-79
2022/10/04 03:29:12;;;;;;;8.55;2.78;;;;;;;8.17;100.00;154581.31;4887627;29;20175;-77
2022/10/04 03:31:41;;;;;;;9.07;2.95;;;;;;;8.21;100.00;154590.28;4912772;29;20031;-81
2022/10/04 03:34:20;;;;;;;9.80;2.67;;;;;;;8.17;100.00;154581.31;4901492;29;20032;-79
2022/10/04 03:36:48;;;;;;;15.25;3.05;;;;;;;8.19;100.00;154586.44;4916326;29;20617;-75
2022/10/04 03:39:26;;;;;;;15.45;3.47;;;;;;;8.13;100.00;154572.34;4923354;29;20047;-79
2022/10/04 03:41:52;;;;;;;13.93;2.80;;;;;;;8.15;100.00;154576.22;4903487;29;20122;-79
2022/10/04 03:44:19;;;;;;;10.02;3.03;;;;;;;8.13;100.00;154572.34;4934499;29;20079;-77
2022/10/04 03:46:46;;;;;;;9.85;2.78;;;;;;;8.14;100.00;154574.94;4919918;29;20035;-79
2022/10/04 03:49:22;;;;;;;10.48;2.88;;;;;;;8.16;100.00;154580.06;4901800;29;20153;-78
2022/10/04 03:51:49;;;;;;;11.70;2.80;;;;;;;8.19;100.00;154587.75;4901126;29;20410;-80
2022/10/04 03:54:20;;;;;;;10.45;3.08;;;;;;;8.18;100.00;154583.91;4920317;29;20071;-80
2022/10/04 03:56:46;;;;;;;10.07;2.80;;;;;;;8.18;100.00;154585.19;4908247;29;20031;-78
2022/10/04 03:59:16;;;;;;;8.65;2.83;;;;;;;8.19;100.00;154587.75;4919797;29;20524;-80
2022/10/04 04:01:55;;;;;;;11.57;2.88;;;;;;;8.22;100.00;154592.88;4912963;29;20103;-79
2022/10/04 04:04:33;;;;;;;11.88;2.85;;;;;;;8.29;100.00;154612.09;4918600;29;20458;-79
2022/10/04 04:07:11;;;;;;;7.35;2.78;;;;;;;8.33;100.00;154621.06;4907647;29;20068;-79
2022/10/04 04:09:44;;;;;;;7.05;2.70;;;;;;;8.34;100.00;154624.91;4902164;29;20042;-79
2022/10/04 04:12:17;;;;;;;8.43;2.58;;;;;;;8.39;100.00;154636.41;4919739;29;20417;-78
2022/10/04 04:14:45;;;;;;;10.43;2.97;;;;;;;8.36;100.00;154628.72;4914092;29;20035;-79
2022/10/04 04:17:26;;;;;;;9.85;2.90;;;;;;;8.36;100.00;154630.03;4919859;29;20043;-78
2022/10/04 04:19:56;;;;;;;12.23;2.88;;;;;;;8.33;100.00;154622.34;4901510;29;20035;-77
2022/10/04 04:22:23;;;;;;;8.88;2.55;;;;;;;8.29;100.00;154610.81;4918617;29;20695;-77
2022/10/04 04:24:49;;;;;;;7.65;2.47;;;;;;;8.28;100.00;154608.25;4933871;29;20042;-79
2022/10/04 04:27:17;;;;;;;7.10;2.95;;;;;;;8.33;100.00;154622.34;4924734;29;20040;-79
2022/10/04 04:29:49;;;;;;;10.10;2.92;;;;;;;8.33;100.00;154622.34;4915924;29;20125;-78
2022/10/04 04:32:31;;;;;;;8.87;3.20;;;;;;;8.32;100.00;154619.75;4917913;29;20067;-78
2022/10/04 04:35:06;;;;;;;9.40;3.17;;;;;;;8.34;100.00;154624.91;4915317;29;20367;-79
2022/10/04 04:37:36;;;;;;;9.82;2.92;;;;;;;8.32;100.00;154619.75;4918708;29;20074;-78
2022/10/04 04:40:21;;;;;;;10.73;3.10;;;;;;;8.29;100.00;154612.09;4915328;29;20537;-77
2022/10/04 04:42:48;;;;;;;10.23;2.75;;;;;;;8.28;100.00;154609.50;4904268;29;20122;-77
2022/10/04 04:45:18;;;;;;;7.80;2.65;;;;;;;8.32;100.00;154619.75;4921449;29;20035;-78
2022/10/04 04:47:46;;;;;;;8.50;2.97;;;;;;;8.33;100.00;154621.06;4896839;29;20036;-78
2022/10/04 04:50:23;;;;;;;9.90;3.20;;;;;;;8.32;100.00;154618.47;4919040;29;20051;-77
2022/10/04 04:52:56;;;;;;;8.52;2.67;;;;;;;8.34;100.00;154623.59;4899070;29;20036;-79
2022/10/04 04:55:28;;;;;;;12.02;2.70;;;;;;;8.34;100.00;154624.91;4920746;29;20067;-78
2022/10/04 04:57:56;;;;;;;6.10;2.70;;;;;;;8.36;100.00;154630.03;4918557;29;20040;-76
2022/10/04 05:00:28;;;;;;;7.25;2.50;;;;;;;8.42;100.00;154642.84;4918927;29;20050;-77
2022/10/04 05:02:56;;;;;;;12.30;2.88;;;;;;;8.45;100.00;154651.81;4918574;29;20036;-77
2022/10/04 05:05:25;;;;;;;13.88;3.20;;;;;;;8.46;100.00;154654.41;4918767;28;20126;-78
2022/10/04 05:08:12;;;;;;;10.60;3.50;;;;;;;8.46;100.00;154653.16;4934894;29;20035;-78
2022/10/04 05:10:50;;;;;;;11.63;3.40;;;;;;;8.43;100.00;154646.72;4921459;29;20115;-77
2022/10/04 05:13:16;;;;;;;11.02;3.90;;;;;;;8.41;100.00;154641.53;4917162;29;20036;-78
2022/10/04 05:15:43;;;;;;;12.60;3.90;;;;;;;8.40;100.00;154639.00;4907641;29;20111;-78
2022/10/04 05:18:29;;;;;;;11.27;3.60;;;;;;;8.37;100.00;154632.56;4900842;29;20043;-79
2022/10/04 05:20:57;;;;;;;6.57;3.22;;;;;;;8.34;100.00;154624.91;4923294;29;20024;-79
2022/10/04 05:23:23;;;;;;;7.93;3.53;;;;;;;8.33;100.00;154621.06;4935292;29;20040;-77
2022/10/04 05:25:50;;;;;;;11.18;3.50;;;;;;;8.29;100.00;154612.09;4905882;29;20038;-77
2022/10/04 05:28:17;;;;;;;11.82;3.95;;;;;;;8.27;100.00;154605.66;4921806;29;20044;-77
2022/10/04 05:30:52;;;;;;;11.27;3.78;;;;;;;8.25;100.00;154600.53;4915221;29;20063;-77
2022/10/04 05:33:39;;;;;;;10.73;3.30;;;;;;;8.20;100.00;154589.03;4933969;29;20039;-77
2022/10/04 05:36:12;;;;;;;9.57;3.78;;;;;;;8.19;100.00;154587.75;4930851;29;20035;-78
2022/10/04 05:38:55;;;;;;;7.95;3.25;;;;;;;8.18;100.00;154585.19;4906525;29;20589;-77
2022/10/04 05:41:33;;;;;;;9.48;3.42;;;;;;;8.20;100.00;154589.03;4908039;29;20075;-80
2022/10/04 05:44:00;;;;;;;11.32;3.85;;;;;;;8.21;100.00;154591.56;4926328;29;20046;-78
2022/10/04 05:46:32;;;;;;;13.13;4.03;;;;;;;8.21;100.00;154590.28;4927468;29;20035;-78
2022/10/04 05:49:05;;;;;;;12.70;4.55;;;;;;;8.22;100.00;154592.88;4912383;29;20059;-79
2022/10/04 05:51:36;;;;;;;10.73;3.88;;;;;;;8.23;100.00;154596.72;4904731;29;20060;-77
2022/10/04 05:54:03;;;;;;;11.33;4.30;;;;;;;8.27;100.00;154606.97;4921379;29;20031;-77
2022/10/04 05:56:28;;;;;;;12.45;4.20;;;;;;;8.30;100.00;154614.63;4917426;29;20040;-77
2022/10/04 05:59:32;;;;;;;15.75;4.30;;;;;;;8.33;100.00;154621.06;4927898;29;20046;-78
2022/10/04 06:02:13;;;;;;;;;;;;;;;8.32;100.00;154619.75;4926247;29;20091;-80
2022/10/04 06:04:45;;;;;;;11.30;3.97;;;;;;;8.33;100.00;154622.34;4932399;29;20402;-77
2022/10/04 06:07:56;;;;;;;8.67;4.00;;;;;;;8.35;100.00;154626.19;4922089;29;20091;-78
2022/10/04 06:10:52;;;;;;;10.32;4.30;;;;;;;8.36;100.00;154628.72;4917782;29;20582;-79
2022/10/04 06:13:33;;;;;;;8.63;4.28;;;;;;;8.35;100.00;154626.19;4957876;29;20047;-77
2022/10/04 06:16:13;;;;;;;9.52;3.88;;;;;;;8.36;100.00;154628.72;4910700;29;20040;-78
2022/10/04 06:19:16;;;;;;;5.95;4.07;;;;;;;8.39;100.00;154636.41;4920174;29;20095;-76
2022/10/04 06:22:12;;;;;;;10.95;4.53;;;;;;;8.34;100.00;154624.91;4941846;29;20031;-78
2022/10/04 06:24:41;;;;;;;9.23;4.45;;;;;;;8.34;100.00;154623.59;4925564;29;20032;-78
2022/10/04 06:27:14;;;;;;;12.05;4.60;;;;;;;8.34;100.00;154623.59;4919038;29;20039;-78
2022/10/04 06:29:57;;;;;;;10.00;4.85;;;;;;;8.32;100.00;154618.47;4925115;29;20044;-80
2022/10/04 06:32:26;;;;;;;;;;;;;;;8.32;100.00;154618.47;4920206;29;20074;-78
2022/10/04 06:35:06;;;;;;;9.93;4.53;;;;;;;8.31;100.00;154617.22;4941905;29;19919;-77
2022/10/04 06:38:07;;;;;;;9.73;4.88;;;;;;;8.33;100.00;154621.06;4922057;29;20043;-78
2022/10/04 06:40:53;;;;;;;14.32;5.25;;;;;;;8.39;100.00;154636.41;4908861;29;20039;-79
2022/10/04 06:43:40;;;;;;;17.58;6.22;;;;;;;8.50;100.00;154663.38;4943556;29;20035;-81
2022/10/04 06:46:22;;;;;;;17.83;7.13;;;;;;;8.64;100.00;154699.22;4915243;29;20047;-80
2022/10/04 06:49:02;;;;;;;10.18;6.22;;;;;;;8.87;100.00;154756.94;4911979;29;20036;-77
2022/10/04 06:51:49;;;;;;;15.32;6.97;;;;;;;9.09;100.00;154810.75;4903684;29;20423;-80
2022/10/04 06:54:47;;;;;;;16.98;6.82;;;;;;;9.35;100.00;154876.13;4926600;29;20153;-78
2022/10/04 06:57:24;;;;;;;21.70;7.80;;;;;;;9.58;100.00;154933.78;4922384;29;20056;-78
2022/10/04 07:00:03;;;;;;;13.93;7.15;;;;;;;9.73;100.00;154970.97;4910490;29;20031;-77
2022/10/04 07:02:36;;;;;;;13.90;6.57;;;;;;;9.87;100.00;155006.91;4940595;29;20135;-77
2022/10/04 07:05:13;;;;;;;17.35;7.10;;;;;;;10.06;100.00;155054.34;4924751;29;20036;-79
2022/10/04 07:07:46;;;;;;;19.55;7.15;;;;;;;10.22;100.00;155092.81;4909821;29;20119;-77
2022/10/04 07:10:31;;;;;;;15.25;6.80;;;;;;;10.37;100.00;155130.06;4908846;29;20095;-78
2022/10/04 07:13:02;;;;;;;12.23;6.47;;;;;;;10.52;100.00;155168.56;4909756;29;20046;-78
2022/10/04 07:15:50;;;;;;;15.93;6.93;;;;;;;10.73;100.00;155219.88;4924376;29;20463;-79
2022/10/04 07:18:25;;;;;;;13.65;6.05;;;;;;;10.76;100.00;155228.88;4924418;29;20082;-78
2022/10/04 07:21:01;;;;;;;15.13;6.28;;;;;;;10.87;100.00;155255.81;4925197;29;20032;-79
2022/10/04 07:23:33;;;;;;;19.42;5.90;;;;;;;11.00;100.00;155287.88;4924826;29;20035;-78
2022/10/04 07:26:15;;;;;;;13.73;5.50;;;;;;;11.24;100.00;155349.47;4936525;29;20047;-79
2022/10/04 07:31:32;;;;;;;14.32;5.47;;;;;;;11.42;100.00;155393.13;4955679;29;20046;-77
2022/10/04 07:34:19;;;;;;;15.10;6.45;;;;;;;11.39;100.00;155385.41;4913120;29;20035;-77
2022/10/04 07:36:50;;;;;;;10.75;5.20;;;;;;;11.36;100.00;155377.69;4922304;29;20059;-78
2022/10/04 07:39:28;;;;;;;12.07;5.05;;;;;;;11.28;100.00;155359.78;4935125;29;20047;-78
2022/10/04 07:41:58;;;;;;;16.52;5.15;;;;;;;11.24;100.00;155348.19;4924292;29;20040;-78
2022/10/04 07:44:35;;;;;;;13.43;4.60;;;;;;;11.25;100.00;155350.78;4923169;29;20039;-79
2022/10/04 07:47:24;;;;;;;11.07;4.80;;;;;;;11.24;100.00;155348.19;4923105;29;20047;-77
2022/10/04 07:49:52;;;;;;;12.32;5.05;;;;;;;11.26;100.00;155354.63;4924198;29;20043;-79
2022/10/04 07:52:59;;;;;;;14.07;5.60;;;;;;;11.34;100.00;155372.56;4921573;29;20050;-78
2022/10/04 07:55:41;;;;;;;12.05;4.50;;;;;;;11.34;100.00;155372.56;4937841;29;20837;-79
2022/10/04 07:58:28;;;;;;;15.63;5.17;;;;;;;11.40;100.00;155389.28;4921936;29;20042;-78
2022/10/04 08:01:32;;;;;;;13.13;5.07;;;;;;;11.42;100.00;155394.41;4907016;29;20506;-79
2022/10/04 08:04:04;;;;;;;11.07;5.03;;;;;;;11.58;100.00;155432.91;4914061;29;20054;-78
2022/10/04 08:06:38;;;;;;;10.50;4.97;;;;;;;11.55;100.00;155426.50;4920869;29;20056;-77
2022/10/04 08:10:02;;;;;;;15.30;5.70;;;;;;;11.62;100.00;155444.50;4923058;29;20123;-77
2022/10/04 08:12:46;;;;;;;13.73;6.20;;;;;;;11.67;100.00;155456.03;4876881;29;20049;-77
2022/10/04 08:15:37;;;;;;;15.32;6.10;;;;;;;11.80;100.00;155488.13;4848840;29;20040;-78
2022/10/04 08:18:21;;;;;;;19.40;5.90;;;;;;;11.85;100.00;155500.97;4890549;29;20071;-79
2022/10/04 08:21:07;;;;;;;15.45;6.88;;;;;;;11.97;100.00;155530.56;4923148;29;20043;-77
2022/10/04 08:23:32;;;;;;;13.32;6.50;;;;;;;12.12;100.00;155567.78;4907091;29;20501;-79
2022/10/04 08:26:25;;;;;;;15.38;6.20;;;;;;;12.17;100.00;155580.66;4919838;29;20502;-79
2022/10/04 08:32:48;;;;;;;14.60;6.20;;;;;;;12.30;100.00;155612.72;4882266;29;20053;-78
2022/10/04 08:35:20;;;;;;;16.65;6.10;;;;;;;12.36;100.00;155628.16;4884147;29;20044;-79
2022/10/04 08:38:08;;;;;;;19.13;7.07;;;;;;;12.53;100.00;155671.81;4903749;29;20050;-78
2022/10/04 08:41:03;;;;;;;14.60;6.22;;;;;;;12.62;100.00;155693.63;4922022;29;20047;-78
2022/10/04 08:43:48;;;;;;;19.52;6.90;;;;;;;12.84;100.00;155750.16;4919512;29;20035;-79
2022/10/04 08:46:32;;;;;;;16.55;6.50;;;;;;;13.01;100.00;155792.56;4923652;29;20059;-78
2022/10/04 08:49:16;;;;;;;15.73;6.15;;;;;;;13.19;100.00;155836.28;4923069;29;20048;-77
2022/10/04 08:52:21;;;;;;;16.55;5.80;;;;;;;13.23;100.00;155847.81;4931754;29;20082;-77
2022/10/04 08:55:33;;;;;;;17.48;6.05;;;;;;;13.37;100.00;155882.59;4919437;29;20812;-78
2022/10/04 08:58:18;;;;;;;16.25;5.53;;;;;;;13.41;100.00;155892.88;4919674;29;20044;-78
2022/10/04 09:00:59;;;;;;;11.80;5.15;;;;;;;13.42;100.00;155895.41;4920941;29;20054;-77
2022/10/04 09:03:40;;;;;;;18.52;5.50;;;;;;;13.46;100.00;155903.16;4906471;29;20123;-77
2022/10/04 09:06:28;;;;;;;18.25;5.60;;;;;;;13.50;100.00;155914.69;4919542;29;20036;-78
2022/10/04 09:09:33;;;;;;;19.88;5.07;;;;;;;13.52;100.00;155918.56;4920447;29;20047;-78
2022/10/04 09:12:26;;;;;;;10.15;4.70;;;;;;;13.65;100.00;155950.69;4919154;29;20051;-78
2022/10/04 09:15:11;;;;;;;12.18;4.43;;;;;;;13.73;100.00;155971.25;4935344;29;20027;-79
2022/10/04 09:17:41;;;;;;;14.23;4.55;;;;;;;13.86;100.00;156003.41;4922895;29;20051;-78
2022/10/04 09:20:31;;;;;;;20.02;4.55;;;;;;;13.97;100.00;156032.94;4915794;29;20071;-75
2022/10/04 09:23:29;;;;;;;22.00;3.95;;;;;;;14.05;100.00;156050.97;4943613;29;20039;-77
2022/10/04 09:26:21;;;;;;;16.92;3.90;;;;;;;14.15;100.00;156077.97;4947464;29;20112;-77
2022/10/04 09:29:31;;;;;;;13.33;3.03;;;;;;;14.26;100.00;156103.66;4932482;29;20039;-82
2022/10/04 09:32:18;;;;;;;16.55;3.38;;;;;;;14.19;100.00;156088.25;4925790;29;20054;-82
2022/10/04 09:35:06;;;;;;;11.13;3.05;;;;;;;14.30;100.00;156114.00;4946270;29;20044;-79
2022/10/04 09:38:00;;;;;;;11.02;3.00;;;;;;;14.37;100.00;156131.97;4954536;28;20486;-78
2022/10/04 09:41:02;;;;;;;18.45;3.55;;;;;;;14.46;100.00;156153.84;4938942;29;20107;-81
2022/10/04 09:43:59;;;;;;;14.63;3.27;;;;;;;14.45;100.00;156151.25;4922283;29;20084;-80
2022/10/04 09:46:43;;;;;;;16.23;3.30;;;;;;;14.46;100.00;156155.13;4928574;29;20528;-79
2022/10/04 09:49:34;;;;;;;11.80;3.33;;;;;;;14.41;100.00;156143.56;4899733;29;20036;-80
2022/10/04 09:52:38;;;;;;;12.75;3.10;;;;;;;14.47;100.00;156156.44;4922114;29;20040;-77
2022/10/04 09:55:32;;;;;;;12.45;3.00;;;;;;;14.52;100.00;156170.59;4938509;29;20044;-79
2022/10/04 09:58:28;;;;;;;14.60;3.58;;;;;;;14.54;100.00;156175.72;4932254;29;20044;-80
2022/10/04 10:01:27;;;;;;;19.70;3.75;;;;;;;14.57;100.00;156183.47;4919192;29;20164;-81
2022/10/04 10:04:30;;;;;;;10.52;3.20;;;;;;;14.62;100.00;156195.06;4936932;29;20043;-81
2022/10/04 10:07:05;;;;;;;15.27;3.47;;;;;;;14.74;100.00;156224.63;4917037;29;20043;-81
2022/10/04 10:15:59;;;;;;;11.93;3.45;;;;;;;14.87;100.00;156256.78;4924461;29;20047;-78
2022/10/04 10:18:54;;;;;;;13.47;4.17;;;;;;;14.87;100.00;156258.06;4920137;29;20035;-79
2022/10/04 10:21:28;;;;;;;14.73;3.40;;;;;;;14.93;100.00;156273.50;4906891;29;20047;-80
2022/10/04 10:24:16;;;;;;;14.60;3.90;;;;;;;14.89;100.00;156261.94;4920963;29;20051;-77
2022/10/04 10:27:14;;;;;;;18.90;3.40;;;;;;;14.93;100.00;156272.22;4922789;29;20145;-80
2022/10/04 10:30:07;;;;;;;15.23;4.07;;;;;;;14.86;100.00;156254.19;4931369;29;20031;-78
2022/10/04 10:32:38;;;;;;;17.88;3.90;;;;;;;14.78;100.00;156236.19;4941755;29;20054;-79
2022/10/04 10:35:35;;;;;;;13.90;4.13;;;;;;;14.71;100.00;156218.22;4918492;29;20040;-78
2022/10/04 10:38:19;;;;;;;19.95;4.90;;;;;;;14.93;100.00;156272.22;4936442;29;20063;-77
2022/10/04 10:41:04;;;;;;;18.48;4.63;;;;;;;15.26;100.00;156355.84;4927559;29;20074;-81
2022/10/04 10:43:49;;;;;;;17.83;4.60;;;;;;;15.46;100.00;156404.72;4909006;29;20063;-78
2022/10/04 10:46:38;;;;;;;18.20;4.68;;;;;;;15.66;100.00;156454.94;4923080;29;20150;-78
2022/10/04 10:49:24;;;;;;;17.85;4.15;;;;;;;15.77;100.00;156483.31;4921704;29;20506;-77
2022/10/04 10:52:30;;;;;;;16.83;4.80;;;;;;;15.90;100.00;156515.50;4929417;29;20122;-78
2022/10/04 10:55:27;;;;;;;12.70;3.85;;;;;;;16.08;100.00;156560.50;4909677;29;20035;-77
2022/10/04 10:58:05;;;;;;;14.55;3.90;;;;;;;16.11;100.00;156568.25;4911365;29;20058;-77
2022/10/04 11:00:46;;;;;;;12.68;4.03;;;;;;;16.24;100.00;156600.44;4924862;29;20086;-77
2022/10/04 11:03:24;;;;;;;13.13;3.47;;;;;;;16.41;100.00;156644.22;4925293;29;20118;-76
2022/10/04 11:06:06;;;;;;;17.83;3.72;;;;;;;16.35;100.00;156630.03;4922675;29;20059;-78
2022/10/04 11:08:50;;;;;;;11.30;3.72;;;;;;;16.32;100.00;156621.03;4922655;29;20770;-78
2022/10/04 11:12:03;;;;;;;16.25;4.00;;;;;;;16.09;100.00;156563.09;4905269;29;20047;-75
2022/10/04 11:14:35;;;;;;;15.70;4.07;;;;;;;16.21;100.00;156593.97;4907698;29;20044;-78
2022/10/04 11:17:19;;;;;;;;;;;;;;;16.70;100.00;156717.56;4908681;29;20106;-80
2022/10/04 11:19:56;;;;;;;13.95;3.67;;;;;;;16.96;100.00;156780.75;4934737;29;19938;-78
2022/10/04 11:23:07;;;;;;;16.58;4.03;;;;;;;16.71;99.18;156720.16;4940930;29;20106;-80
2022/10/04 11:25:56;;;;;;;13.20;3.58;;;;;;;16.73;100.00;156724.03;4935060;29;20047;-77
2022/10/04 11:28:36;;;;;;;19.33;4.30;;;;;;;16.98;96.23;156785.91;4924406;29;20042;-77
2022/10/04 11:31:39;;;;;;;20.83;3.95;;;;;;;17.28;99.63;156863.16;4907739;29;20067;-75
2022/10/04 11:34:23;;;;;;;13.77;3.50;;;;;;;17.36;100.00;156881.22;4908695;29;20043;-77
2022/10/04 11:37:11;;;;;;;16.27;2.90;;;;;;;17.13;100.00;156824.53;4919213;29;20039;-77
2022/10/04 11:39:44;;;;;;;11.50;3.08;;;;;;;17.00;100.00;156791.06;4910156;29;20059;-79
2022/10/04 11:42:28;;;;;;;;;;;;;;;17.01;100.00;156793.59;4940529;29;20039;-79
2022/10/04 11:45:12;;;;;;;10.10;3.05;;;;;;;17.18;98.96;156836.09;4907395;29;19919;-78
2022/10/04 11:47:59;;;;;;;12.75;3.20;;;;;;;17.32;99.88;156873.47;4906987;29;20437;-80
2022/10/04 11:50:50;;;;;;;11.35;2.50;;;;;;;17.58;100.00;156937.91;4923687;29;20490;-78
2022/10/04 11:53:28;;;;;;;9.30;2.03;;;;;;;17.14;96.57;156827.13;4922842;29;20593;-79
2022/10/04 11:56:23;;;;;;;9.95;2.20;;;;;;;16.68;100.00;156712.44;4940173;29;20047;-79
2022/10/04 11:59:40;;;;;;;10.50;2.50;;;;;;;16.88;95.05;156761.44;4911044;29;20498;-78
2022/10/04 12:02:38;;;;;;;10.45;2.13;;;;;;;17.05;100.00;156805.22;4860904;29;20524;-78
2022/10/04 12:05:31;;;;;;;10.32;2.13;;;;;;;16.70;100.00;156716.28;4934262;29;20054;-79
2022/10/04 12:08:13;;;;;;;13.68;2.40;;;;;;;16.91;100.00;156770.47;4918998;29;20127;-79
2022/10/04 12:10:41;;;;;;;14.23;2.30;;;;;;;17.14;100.00;156827.13;4940247;29;20062;-77
2022/10/04 12:13:27;;;;;;;8.13;1.80;;;;;;;17.48;98.90;156912.16;4924309;29;20035;-78
2022/10/04 12:16:15;;;;;;;11.95;1.88;;;;;;;17.62;94.65;156948.19;4923767;29;20099;-78
2022/10/04 12:19:22;;;;;;;8.27;1.80;;;;;;;16.97;91.41;156784.63;4919515;29;20043;-81
2022/10/04 12:21:58;;;;;;;9.43;1.80;;;;;;;17.10;97.43;156816.78;4925183;29;20072;-76
2022/10/04 12:24:56;;;;;;;9.27;1.85;;;;;;;16.92;96.19;156773.00;4943267;29;20058;-78
2022/10/04 12:27:58;;;;;;;10.95;1.98;;;;;;;16.82;100.00;156747.28;4943889;29;20039;-78
2022/10/04 12:30:52;;;;;;;8.48;1.85;;;;;;;17.28;97.65;156863.16;4928410;29;20075;-80